Pimenteiras, Brazil
Current Conditions -  °F | °C
As of 9:00 AM on Monday 22 Dec 2014 (Local Time) from SBTE Reporting Station
Clear Clear  
Wind Chill: 88°   Ceiling: Unl
Heat Index: 90°   Visibility: 6mi
Dew Point: 66°   Wind: 3mph
Humidity: 49%   Direction: 60°ENE
Pressure: 29.88"   Gusts: NA
Location:  6.25°S, 41.42°W
Report Text: SBTE 221200Z 06003KT CAVOK 31/19 Q1012
Loading
Personal Weather Stations






























Interactive Weather Map New forecast layout! Learn more

10-Day Weather Forecast

Advertisements
Track Severe Weather on mobile